Villa Trinidad, Argentina
Current Conditions -  °F | °C
As of 10:00 AM on Wednesday 22 Oct 2014 (Local Time) from SACO Reporting Station
Clear Clear  
Wind Chill: 81°   Ceiling: Unl
Heat Index: 81°   Visibility: 6mi
Dew Point: 45°   Wind: 21mph
Humidity: 28%   Direction: 20°NNE
Pressure: 30.03"   Gusts: NA
Location:  30.22°S, 61.88°W
Report Text: SACO 221300Z 02018KT CAVOK 27/07 Q1017
Loading
Personal Weather Stations






























Interactive Weather Map New forecast layout! Learn more

10-Day Weather Forecast

Advertisements
Track Severe Weather on mobile